Aeroporto :
LOGIN :

Iscrizione | Disclaimer

   EN    FR    IT 

 










Sommario :    VFR   VFR Marginale   IFR   IFR Intensivo   IFR Molto Intensivo
Visibilità : 
Base nubi : 
>= 8 km
>= 3000ft
5 / 8 km
1000 / 3000 ft
1500m / 5 km
500 / 1000 ft
800 / 1500m
200 / 500 ft
< 800m
< 200 ft
Simboli :   Temporali  Nebbia  Neve Forte  Precipitazioni Forti  Vento > 20 kt
SIGMETs :   Varie  Temporali  Ghiacco  Turbolenza  Onda orograficha  Ceneri Vulcaniche






- Altitudine del aeroporto : 219 ft
- Codice IATA : DNR


LFRD - Dinard

ULTIMO METAR :
  • 200430Z AUTO 33010KT 9999 BKN023 BKN031 BKN038 15/11 Q1021 NOSIG

METARs OBSOLETI :
  • 200400Z AUTO 34012KT 9999 SCT024 SCT029 BKN034 14/10 Q1021 NOSIG
  • 200330Z AUTO 33011KT 9999 BKN026 BKN034 BKN046 15/10 Q1021 NOSIG
  • 200300Z AUTO 33011KT 9999 FEW026 SCT031 BKN047 15/11 Q1021 NOSIG
  • 200230Z AUTO 33009KT 9999 BKN027 BKN040 BKN050 15/10 Q1021 NOSIG
  • 200200Z AUTO 34011KT 9999 BKN026 BKN031 BKN043 15/10 Q1021 NOSIG

TAF TAF LFRD
Valido dal 20 a 00 ore il 21 a 00 ore UTC


192300Z 2000/2024 33010KT 9999 SCT030
PROB30
TEMPO 2007/2009 4000 SHRA
TEMPO 2009/2018 35015G25KT
ATIS : +33 2 99 16 81 50



MetMap, La meteo Aeronautica in un colpo d'occhio ! - Copyright ORBIFLY Dicembre 2007 - Disclaimer

ORBIFLY MET'MAP TEAM :

Programmazione e sviluppo : Alexandra Zaïnal
Concezione : Baudouin d'Aumeries
Aiuto per la programmazione : Marc-Olivier Méhu
Supporto tecnico e logistico : Manuel Goepfert
Aiuto per la traduzione : Arnaldo La Scala

Contatto : metmap@orbifly.com




FONTI E CREDITI :

   NOAA